sensor_id;sensor_type;location;lat;lon;timestamp;pressure;altitude;pressure_sealevel;temperature;humidity
10992;BME280;5549;47.028;15.514;2024-03-23T00:52:28;96133.03;;;13.97;46.23
10992;BME280;5549;47.028;15.514;2024-03-23T00:54:54;96131.22;;;13.98;46.15
10992;BME280;5549;47.028;15.514;2024-03-23T00:57:22;96124.94;;;13.99;45.92
10992;BME280;5549;47.028;15.514;2024-03-23T00:59:51;96129.41;;;13.98;46.14
10992;BME280;5549;47.028;15.514;2024-03-23T01:02:18;96116.34;;;13.97;45.97
10992;BME280;5549;47.028;15.514;2024-03-23T01:04:45;96114.53;;;13.89;46.05
10992;BME280;5549;47.028;15.514;2024-03-23T01:07:13;96113.97;;;13.86;46.36
10992;BME280;5549;47.028;15.514;2024-03-23T01:09:43;96115.63;;;13.87;46.34
10992;BME280;5549;47.028;15.514;2024-03-23T01:12:12;96115.63;;;13.87;46.38
10992;BME280;5549;47.028;15.514;2024-03-23T01:14:39;96105.22;;;13.77;46.82
10992;BME280;5549;47.028;15.514;2024-03-23T01:17:06;96106.53;;;13.81;46.62
10992;BME280;5549;47.028;15.514;2024-03-23T01:19:33;96115.63;;;13.87;46.17
10992;BME280;5549;47.028;15.514;2024-03-23T01:22:03;96107.59;;;13.88;45.71
10992;BME280;5549;47.028;15.514;2024-03-23T01:24:30;96105.78;;;13.89;45.62
10992;BME280;5549;47.028;15.514;2024-03-23T01:26:59;96100.34;;;13.90;45.72
10992;BME280;5549;47.028;15.514;2024-03-23T01:29:26;96104.47;;;13.93;45.70
10992;BME280;5549;47.028;15.514;2024-03-23T01:31:53;96103.13;;;13.89;45.77
10992;BME280;5549;47.028;15.514;2024-03-23T01:34:22;96100.66;;;13.87;45.64
10992;BME280;5549;47.028;15.514;2024-03-23T01:36:53;96094.53;;;13.87;45.56
10992;BME280;5549;47.028;15.514;2024-03-23T01:39:22;96091.75;;;13.88;45.60
10992;BME280;5549;47.028;15.514;2024-03-23T01:41:50;96085.13;;;13.84;45.83
10992;BME280;5549;47.028;15.514;2024-03-23T01:44:18;96079.81;;;13.76;45.81
10992;BME280;5549;47.028;15.514;2024-03-23T01:46:48;96085.41;;;13.73;45.83
10992;BME280;5549;47.028;15.514;2024-03-23T01:49:16;96077.50;;;13.73;45.81
10992;BME280;5549;47.028;15.514;2024-03-23T01:51:46;96076.97;;;13.69;46.07
10992;BME280;5549;47.028;15.514;2024-03-23T01:54:12;96066.75;;;13.66;46.08
10992;BME280;5549;47.028;15.514;2024-03-23T01:56:43;96065.09;;;13.65;46.04
10992;BME280;5549;47.028;15.514;2024-03-23T01:59:12;96066.75;;;13.66;45.74
10992;BME280;5549;47.028;15.514;2024-03-23T02:01:41;96064.28;;;13.65;45.84
10992;BME280;5549;47.028;15.514;2024-03-23T02:04:10;96061.63;;;13.65;46.06
10992;BME280;5549;47.028;15.514;2024-03-23T02:06:38;96056.50;;;13.63;46.24
10992;BME280;5549;47.028;15.514;2024-03-23T02:09:07;96056.84;;;13.60;46.46
10992;BME280;5549;47.028;15.514;2024-03-23T02:11:36;96047.25;;;13.59;46.32
10992;BME280;5549;47.028;15.514;2024-03-23T02:14:03;96036.06;;;13.57;46.47
10992;BME280;5549;47.028;15.514;2024-03-23T02:16:32;96035.03;;;13.50;46.76
10992;BME280;5549;47.028;15.514;2024-03-23T02:19:03;96030.41;;;13.44;47.26
10992;BME280;5549;47.028;15.514;2024-03-23T02:21:32;96031.53;;;13.41;47.06
10992;BME280;5549;47.028;15.514;2024-03-23T02:24:03;96022.81;;;13.41;47.20
10992;BME280;5549;47.028;15.514;2024-03-23T02:26:33;96011.59;;;13.39;46.98
10992;BME280;5549;47.028;15.514;2024-03-23T02:29:03;96021.16;;;13.40;46.83
10992;BME280;5549;47.028;15.514;2024-03-23T02:31:31;96012.25;;;13.41;47.78
10992;BME280;5549;47.028;15.514;2024-03-23T02:33:58;96012.72;;;13.36;48.19
10992;BME280;5549;47.028;15.514;2024-03-23T02:36:26;96008.91;;;13.31;48.26
10992;BME280;5549;47.028;15.514;2024-03-23T02:38:55;95998.69;;;13.28;47.98
10992;BME280;5549;47.028;15.514;2024-03-23T02:41:24;95996.06;;;13.28;48.48
10992;BME280;5549;47.028;15.514;2024-03-23T02:43:52;95995.19;;;13.19;48.52
10992;BME280;5549;47.028;15.514;2024-03-23T02:46:21;95996.63;;;13.13;48.75
10992;BME280;5549;47.028;15.514;2024-03-23T02:48:48;95989.19;;;13.09;48.20
10992;BME280;5549;47.028;15.514;2024-03-23T02:51:16;95992.66;;;13.09;47.98
10992;BME280;5549;47.028;15.514;2024-03-23T02:53:42;95990.34;;;13.06;47.95
10992;BME280;5549;47.028;15.514;2024-03-23T02:56:12;95995.44;;;13.08;47.72
10992;BME280;5549;47.028;15.514;2024-03-23T02:58:45;96002.53;;;13.07;47.97
10992;BME280;5549;47.028;15.514;2024-03-23T03:01:13;95999.53;;;13.02;48.27
10992;BME280;5549;47.028;15.514;2024-03-23T03:03:42;95992.59;;;12.93;48.76
10992;BME280;5549;47.028;15.514;2024-03-23T03:06:23;95991.25;;;12.89;48.73
10992;BME280;5549;47.028;15.514;2024-03-23T03:08:53;95990.56;;;12.87;48.62
10992;BME280;5549;47.028;15.514;2024-03-23T03:11:23;95985.63;;;12.84;48.46
10992;BME280;5549;47.028;15.514;2024-03-23T03:13:53;95981.63;;;12.80;48.64
10992;BME280;5549;47.028;15.514;2024-03-23T03:16:21;95976.84;;;12.75;48.50
10992;BME280;5549;47.028;15.514;2024-03-23T03:18:48;95977.16;;;12.72;48.69
10992;BME280;5549;47.028;15.514;2024-03-23T03:21:18;95975.66;;;12.70;48.74
10992;BME280;5549;47.028;15.514;2024-03-23T03:23:50;95972.50;;;12.66;48.68
10992;BME280;5549;47.028;15.514;2024-03-23T03:26:18;95967.31;;;12.48;49.68
10992;BME280;5549;47.028;15.514;2024-03-23T03:28:47;95968.59;;;12.44;49.52
10992;BME280;5549;47.028;15.514;2024-03-23T03:31:16;95971.38;;;12.43;49.30
10992;BME280;5549;47.028;15.514;2024-03-23T03:33:44;95976.66;;;12.43;49.49
10992;BME280;5549;47.028;15.514;2024-03-23T03:36:14;95967.56;;;12.37;49.75
10992;BME280;5549;47.028;15.514;2024-03-23T03:38:42;95960.53;;;12.20;50.43
10992;BME280;5549;47.028;15.514;2024-03-23T03:41:12;95966.69;;;12.11;50.69
10992;BME280;5549;47.028;15.514;2024-03-23T03:43:39;95967.28;;;12.05;50.39
10992;BME280;5549;47.028;15.514;2024-03-23T03:46:07;95967.44;;;11.85;51.08
10992;BME280;5549;47.028;15.514;2024-03-23T03:48:36;95960.44;;;11.76;51.37
10992;BME280;5549;47.028;15.514;2024-03-23T03:51:04;95956.44;;;11.72;51.16
10992;BME280;5549;47.028;15.514;2024-03-23T03:53:33;95951.72;;;11.58;51.86
10992;BME280;5549;47.028;15.514;2024-03-23T03:56:01;95951.03;;;11.56;52.03
10992;BME280;5549;47.028;15.514;2024-03-23T03:58:28;95953.28;;;11.51;51.68
10992;BME280;5549;47.028;15.514;2024-03-23T04:00:56;95943.81;;;11.58;51.99
10992;BME280;5549;47.028;15.514;2024-03-23T04:03:25;95944.13;;;11.55;52.21
10992;BME280;5549;47.028;15.514;2024-03-23T04:05:57;95941.81;;;11.52;52.41
10992;BME280;5549;47.028;15.514;2024-03-23T04:08:30;95937.75;;;11.57;52.35
10992;BME280;5549;47.028;15.514;2024-03-23T04:11:00;95932.56;;;11.48;52.37
10992;BME280;5549;47.028;15.514;2024-03-23T04:13:27;95933.47;;;11.39;53.12
10992;BME280;5549;47.028;15.514;2024-03-23T04:15:55;95935.31;;;11.29;53.17
10992;BME280;5549;47.028;15.514;2024-03-23T04:18:26;95936.81;;;11.13;53.78
10992;BME280;5549;47.028;15.514;2024-03-23T04:20:58;95931.03;;;11.28;53.40
10992;BME280;5549;47.028;15.514;2024-03-23T04:23:25;95923.59;;;11.23;53.50
10992;BME280;5549;47.028;15.514;2024-03-23T04:25:53;95921.72;;;11.15;53.43
10992;BME280;5549;47.028;15.514;2024-03-23T04:28:20;95918.34;;;11.23;54.06
10992;BME280;5549;47.028;15.514;2024-03-23T04:30:47;95910.59;;;11.21;53.71
10992;BME280;5549;47.028;15.514;2024-03-23T04:33:16;95917.06;;;11.09;53.60
10992;BME280;5549;47.028;15.514;2024-03-23T04:35:49;95919.09;;;11.15;53.52
10992;BME280;5549;47.028;15.514;2024-03-23T04:38:17;95923.38;;;11.16;54.04
10992;BME280;5549;47.028;15.514;2024-03-23T04:40:55;95924.72;;;11.20;53.93
10992;BME280;5549;47.028;15.514;2024-03-23T04:43:26;95930.44;;;11.34;52.74
10992;BME280;5549;47.028;15.514;2024-03-23T04:45:57;95923.53;;;11.33;53.16
10992;BME280;5549;47.028;15.514;2024-03-23T04:48:25;95916.78;;;11.30;53.55
10992;BME280;5549;47.028;15.514;2024-03-23T04:50:58;95908.97;;;11.20;53.29
10992;BME280;5549;47.028;15.514;2024-03-23T04:53:27;95902.50;;;11.33;52.96
10992;BME280;5549;47.028;15.514;2024-03-23T04:55:55;95900.34;;;11.46;51.79
10992;BME280;5549;47.028;15.514;2024-03-23T04:58:26;95908.66;;;11.59;51.16
10992;BME280;5549;47.028;15.514;2024-03-23T05:00:54;95911.06;;;11.70;51.87
10992;BME280;5549;47.028;15.514;2024-03-23T05:03:24;95909.63;;;11.76;51.68
10992;BME280;5549;47.028;15.514;2024-03-23T05:05:53;95905.75;;;11.80;51.09
10992;BME280;5549;47.028;15.514;2024-03-23T05:08:20;95897.41;;;11.84;51.36
10992;BME280;5549;47.028;15.514;2024-03-23T05:10:48;95887.56;;;11.86;51.39
10992;BME280;5549;47.028;15.514;2024-03-23T05:13:15;95884.41;;;11.83;51.21
10992;BME280;5549;47.028;15.514;2024-03-23T05:15:50;95883.25;;;11.85;51.06
10992;BME280;5549;47.028;15.514;2024-03-23T05:18:19;95878.38;;;11.91;50.49
10992;BME280;5549;47.028;15.514;2024-03-23T05:20:46;95874.41;;;11.86;51.75
10992;BME280;5549;47.028;15.514;2024-03-23T05:23:13;95879.66;;;11.86;51.47
10992;BME280;5549;47.028;15.514;2024-03-23T05:25:39;95871.91;;;11.85;52.02
10992;BME280;5549;47.028;15.514;2024-03-23T05:28:10;95871.41;;;11.81;52.12
10992;BME280;5549;47.028;15.514;2024-03-23T05:30:37;95872.75;;;11.85;52.20
10992;BME280;5549;47.028;15.514;2024-03-23T05:33:06;95871.47;;;11.89;51.74
10992;BME280;5549;47.028;15.514;2024-03-23T05:35:33;95870.06;;;11.77;52.07
10992;BME280;5549;47.028;15.514;2024-03-23T05:38:01;95873.88;;;11.83;52.54
10992;BME280;5549;47.028;15.514;2024-03-23T05:40:30;95872.44;;;11.88;52.09
10992;BME280;5549;47.028;15.514;2024-03-23T05:43:00;95871.91;;;11.85;52.09
10992;BME280;5549;47.028;15.514;2024-03-23T05:45:28;95876.47;;;12.01;51.19
10992;BME280;5549;47.028;15.514;2024-03-23T05:47:55;95865.53;;;12.13;51.90
10992;BME280;5549;47.028;15.514;2024-03-23T05:50:23;95868.25;;;12.22;51.75
10992;BME280;5549;47.028;15.514;2024-03-23T05:52:51;95864.50;;;12.32;51.00
10992;BME280;5549;47.028;15.514;2024-03-23T05:55:19;95863.22;;;12.36;51.57
10992;BME280;5549;47.028;15.514;2024-03-23T05:57:47;95855.50;;;12.43;51.53
10992;BME280;5549;47.028;15.514;2024-03-23T06:00:14;95857.84;;;12.46;52.36
10992;BME280;5549;47.028;15.514;2024-03-23T06:02:44;95857.03;;;12.53;51.85
10992;BME280;5549;47.028;15.514;2024-03-23T06:05:11;95853.31;;;12.64;50.83
10992;BME280;5549;47.028;15.514;2024-03-23T06:07:39;95856.63;;;12.74;50.48
10992;BME280;5549;47.028;15.514;2024-03-23T06:10:09;95852.53;;;12.80;50.48
10992;BME280;5549;47.028;15.514;2024-03-23T06:12:38;95846.25;;;12.73;50.48
10992;BME280;5549;47.028;15.514;2024-03-23T06:15:08;95849.38;;;12.68;50.79
10992;BME280;5549;47.028;15.514;2024-03-23T06:17:36;95850.81;;;12.63;51.06
10992;BME280;5549;47.028;15.514;2024-03-23T06:20:08;95846.69;;;12.60;51.09
10992;BME280;5549;47.028;15.514;2024-03-23T06:22:37;95847.38;;;12.62;50.65
10992;BME280;5549;47.028;15.514;2024-03-23T06:25:08;95846.91;;;12.75;50.75
10992;BME280;5549;47.028;15.514;2024-03-23T06:27:35;95848.44;;;12.85;50.25
10992;BME280;5549;47.028;15.514;2024-03-23T06:30:05;95838.41;;;12.97;50.41
10992;BME280;5549;47.028;15.514;2024-03-23T06:32:36;95826.09;;;13.06;51.21
10992;BME280;5549;47.028;15.514;2024-03-23T06:35:07;95825.44;;;13.12;51.85
10992;BME280;5549;47.028;15.514;2024-03-23T06:37:36;95829.09;;;13.27;51.37
10992;BME280;5549;47.028;15.514;2024-03-23T06:40:07;95825.31;;;13.30;50.86
10992;BME280;5549;47.028;15.514;2024-03-23T06:42:36;95833.06;;;13.39;50.58
10992;BME280;5549;47.028;15.514;2024-03-23T06:45:05;95835.06;;;13.54;51.05
10992;BME280;5549;47.028;15.514;2024-03-23T06:47:32;95831.25;;;13.32;51.47
10992;BME280;5549;47.028;15.514;2024-03-23T06:50:04;95830.28;;;13.41;50.97
10992;BME280;5549;47.028;15.514;2024-03-23T06:52:35;95830.25;;;13.25;49.66
10992;BME280;5549;47.028;15.514;2024-03-23T06:55:02;95837.03;;;13.52;49.77
10992;BME280;5549;47.028;15.514;2024-03-23T06:57:30;95832.25;;;13.96;55.78
10992;BME280;5549;47.028;15.514;2024-03-23T06:59:59;95822.75;;;14.34;53.79
10992;BME280;5549;47.028;15.514;2024-03-23T07:02:29;95814.22;;;14.71;51.79
10992;BME280;5549;47.028;15.514;2024-03-23T07:04:56;95813.56;;;15.00;51.32
10992;BME280;5549;47.028;15.514;2024-03-23T07:07:25;95818.16;;;15.29;50.17
10992;BME280;5549;47.028;15.514;2024-03-23T07:09:54;95815.34;;;15.53;49.27
10992;BME280;5549;47.028;15.514;2024-03-23T07:12:22;95811.63;;;15.70;48.66
10992;BME280;5549;47.028;15.514;2024-03-23T07:14:51;95802.25;;;15.83;48.47
10992;BME280;5549;47.028;15.514;2024-03-23T07:17:18;95815.25;;;16.07;48.56
10992;BME280;5549;47.028;15.514;2024-03-23T07:19:46;95818.19;;;16.27;47.61
10992;BME280;5549;47.028;15.514;2024-03-23T07:22:13;95809.88;;;16.45;46.98
10992;BME280;5549;47.028;15.514;2024-03-23T07:24:44;95809.31;;;16.64;47.12
10992;BME280;5549;47.028;15.514;2024-03-23T07:27:13;95806.59;;;16.72;46.57
10992;BME280;5549;47.028;15.514;2024-03-23T07:29:39;95804.84;;;16.79;46.15
10992;BME280;5549;47.028;15.514;2024-03-23T07:32:09;95806.56;;;16.87;45.67
10992;BME280;5549;47.028;15.514;2024-03-23T07:34:39;95801.53;;;16.92;45.67
10992;BME280;5549;47.028;15.514;2024-03-23T07:37:11;95795.59;;;16.90;44.72
10992;BME280;5549;47.028;15.514;2024-03-23T07:39:41;95789.34;;;16.97;45.59
10992;BME280;5549;47.028;15.514;2024-03-23T07:42:08;95796.19;;;17.07;45.44
10992;BME280;5549;47.028;15.514;2024-03-23T07:44:36;95790.63;;;17.02;45.07
10992;BME280;5549;47.028;15.514;2024-03-23T07:47:07;95787.84;;;17.10;45.31
10992;BME280;5549;47.028;15.514;2024-03-23T07:49:33;95787.47;;;17.13;45.11
10992;BME280;5549;47.028;15.514;2024-03-23T07:52:01;95791.91;;;17.27;45.01
10992;BME280;5549;47.028;15.514;2024-03-23T07:54:29;95790.97;;;17.35;44.35
10992;BME280;5549;47.028;15.514;2024-03-23T07:56:57;95799.09;;;17.33;44.28
10992;BME280;5549;47.028;15.514;2024-03-23T07:59:24;95782.44;;;17.39;44.64
10992;BME280;5549;47.028;15.514;2024-03-23T08:01:53;95784.53;;;17.44;44.12
10992;BME280;5549;47.028;15.514;2024-03-23T08:04:22;95785.47;;;17.57;44.83
10992;BME280;5549;47.028;15.514;2024-03-23T08:06:52;95786.09;;;17.59;43.98
10992;BME280;5549;47.028;15.514;2024-03-23T08:09:18;95783.53;;;17.66;43.97
10992;BME280;5549;47.028;15.514;2024-03-23T08:11:48;95778.91;;;17.75;43.80
10992;BME280;5549;47.028;15.514;2024-03-23T08:14:17;95780.41;;;17.84;43.68
10992;BME280;5549;47.028;15.514;2024-03-23T08:16:48;95776.78;;;17.91;44.12
10992;BME280;5549;47.028;15.514;2024-03-23T08:19:17;95769.28;;;18.02;43.85
10992;BME280;5549;47.028;15.514;2024-03-23T08:21:45;95767.91;;;18.06;43.87
10992;BME280;5549;47.028;15.514;2024-03-23T08:24:13;95770.59;;;18.12;43.51
10992;BME280;5549;47.028;15.514;2024-03-23T08:26:41;95757.34;;;18.19;43.61
10992;BME280;5549;47.028;15.514;2024-03-23T08:29:07;95760.63;;;18.21;42.92
10992;BME280;5549;47.028;15.514;2024-03-23T08:31:37;95751.22;;;18.18;41.59
10992;BME280;5549;47.028;15.514;2024-03-23T08:34:06;95756.78;;;17.95;41.89
10992;BME280;5549;47.028;15.514;2024-03-23T08:36:35;95757.03;;;17.73;42.30
10992;BME280;5549;47.028;15.514;2024-03-23T08:39:02;95750.72;;;17.52;42.64
10992;BME280;5549;47.028;15.514;2024-03-23T08:41:30;95753.44;;;17.38;43.35
10992;BME280;5549;47.028;15.514;2024-03-23T08:43:59;95754.25;;;17.17;43.69
10992;BME280;5549;47.028;15.514;2024-03-23T08:46:27;95753.69;;;17.21;44.56
10992;BME280;5549;47.028;15.514;2024-03-23T08:48:56;95744.25;;;17.19;44.65
10992;BME280;5549;47.028;15.514;2024-03-23T08:51:23;95747.03;;;17.32;45.21
10992;BME280;5549;47.028;15.514;2024-03-23T08:53:51;95743.22;;;17.35;45.01
10992;BME280;5549;47.028;15.514;2024-03-23T08:56:18;95739.34;;;17.37;46.02
10992;BME280;5549;47.028;15.514;2024-03-23T08:58:49;95737.25;;;17.54;45.43
10992;BME280;5549;47.028;15.514;2024-03-23T09:01:18;95738.56;;;17.64;44.37
10992;BME280;5549;47.028;15.514;2024-03-23T09:03:45;95733.00;;;17.81;44.46
10992;BME280;5549;47.028;15.514;2024-03-23T09:06:14;95729.16;;;17.90;44.20
10992;BME280;5549;47.028;15.514;2024-03-23T09:08:41;95710.13;;;18.21;45.71
10992;BME280;5549;47.028;15.514;2024-03-23T09:11:12;95708.88;;;18.58;46.47
10992;BME280;5549;47.028;15.514;2024-03-23T09:13:41;95703.19;;;18.61;41.91
10992;BME280;5549;47.028;15.514;2024-03-23T09:16:09;95696.59;;;18.57;36.88
10992;BME280;5549;47.028;15.514;2024-03-23T09:18:36;95690.72;;;18.68;39.10
10992;BME280;5549;47.028;15.514;2024-03-23T09:21:12;95686.88;;;18.84;37.93
10992;BME280;5549;47.028;15.514;2024-03-23T09:23:40;95682.16;;;18.79;36.40
10992;BME280;5549;47.028;15.514;2024-03-23T09:26:09;95680.53;;;18.91;37.19
10992;BME280;5549;47.028;15.514;2024-03-23T09:28:38;95677.88;;;18.91;35.46
10992;BME280;5549;47.028;15.514;2024-03-23T09:31:07;95669.50;;;19.01;35.43
10992;BME280;5549;47.028;15.514;2024-03-23T09:33:36;95665.22;;;19.07;35.77
10992;BME280;5549;47.028;15.514;2024-03-23T09:36:05;95665.88;;;19.22;35.64
10992;BME280;5549;47.028;15.514;2024-03-23T09:38:32;95660.75;;;19.14;36.36
10992;BME280;5549;47.028;15.514;2024-03-23T09:41:00;95653.78;;;19.33;36.35
10992;BME280;5549;47.028;15.514;2024-03-23T09:43:28;95652.75;;;19.40;37.09
10992;BME280;5549;47.028;15.514;2024-03-23T09:45:58;95641.50;;;19.58;36.47
10992;BME280;5549;47.028;15.514;2024-03-23T09:48:24;95641.09;;;19.68;36.44
10992;BME280;5549;47.028;15.514;2024-03-23T09:50:52;95636.34;;;19.83;36.62
10992;BME280;5549;47.028;15.514;2024-03-23T09:53:21;95632.66;;;19.84;35.63
10992;BME280;5549;47.028;15.514;2024-03-23T09:55:48;95646.81;;;19.38;36.05
10992;BME280;5549;47.028;15.514;2024-03-23T09:58:18;95640.03;;;19.03;36.20
10992;BME280;5549;47.028;15.514;2024-03-23T10:00:50;95632.47;;;19.00;37.09
10992;BME280;5549;47.028;15.514;2024-03-23T10:03:19;95634.50;;;18.84;37.36
10992;BME280;5549;47.028;15.514;2024-03-23T10:05:47;95629.16;;;18.84;37.45
10992;BME280;5549;47.028;15.514;2024-03-23T10:08:19;95621.41;;;18.96;37.63
10992;BME280;5549;47.028;15.514;2024-03-23T10:10:47;95618.53;;;19.04;36.89
10992;BME280;5549;47.028;15.514;2024-03-23T10:13:26;95619.38;;;19.38;37.92
10992;BME280;5549;47.028;15.514;2024-03-23T10:15:59;95605.84;;;19.59;36.36
10992;BME280;5549;47.028;15.514;2024-03-23T10:18:26;95607.28;;;19.42;36.29
10992;BME280;5549;47.028;15.514;2024-03-23T10:21:08;95604.22;;;19.32;37.12
10992;BME280;5549;47.028;15.514;2024-03-23T10:23:36;95605.03;;;19.45;38.54
10992;BME280;5549;47.028;15.514;2024-03-23T10:26:18;95599.31;;;19.55;37.77
10992;BME280;5549;47.028;15.514;2024-03-23T10:28:53;95600.94;;;19.36;38.63
10992;BME280;5549;47.028;15.514;2024-03-23T10:31:24;95591.09;;;19.43;38.79
10992;BME280;5549;47.028;15.514;2024-03-23T10:33:51;95584.31;;;19.67;38.80
10992;BME280;5549;47.028;15.514;2024-03-23T10:36:23;95593.56;;;19.65;38.42
10992;BME280;5549;47.028;15.514;2024-03-23T10:38:51;95579.63;;;19.63;38.11
10992;BME280;5549;47.028;15.514;2024-03-23T10:41:20;95573.81;;;19.85;39.29
10992;BME280;5549;47.028;15.514;2024-03-23T10:43:48;95572.84;;;20.18;37.92
10992;BME280;5549;47.028;15.514;2024-03-23T10:46:17;95570.25;;;20.49;36.90
10992;BME280;5549;47.028;15.514;2024-03-23T10:48:48;95563.53;;;20.72;36.30
10992;BME280;5549;47.028;15.514;2024-03-23T10:51:18;95559.88;;;20.98;36.88
10992;BME280;5549;47.028;15.514;2024-03-23T10:53:45;95551.72;;;20.93;34.76
10992;BME280;5549;47.028;15.514;2024-03-23T10:56:16;95551.44;;;21.01;35.65
10992;BME280;5549;47.028;15.514;2024-03-23T10:58:47;95542.56;;;20.82;34.91
10992;BME280;5549;47.028;15.514;2024-03-23T11:01:16;95540.88;;;20.88;34.38
10992;BME280;5549;47.028;15.514;2024-03-23T11:03:46;95533.63;;;20.95;36.84
10992;BME280;5549;47.028;15.514;2024-03-23T11:06:35;95536.63;;;21.05;36.07
10992;BME280;5549;47.028;15.514;2024-03-23T11:09:02;95523.59;;;21.15;36.65
10992;BME280;5549;47.028;15.514;2024-03-23T11:11:32;95522.19;;;21.56;34.70
10992;BME280;5549;47.028;15.514;2024-03-23T11:14:22;95516.88;;;21.86;33.25
10992;BME280;5549;47.028;15.514;2024-03-23T11:17:09;95506.16;;;22.22;33.80
10992;BME280;5549;47.028;15.514;2024-03-23T11:19:39;95493.44;;;22.48;33.79
10992;BME280;5549;47.028;15.514;2024-03-23T11:22:10;95493.41;;;22.66;34.67
10992;BME280;5549;47.028;15.514;2024-03-23T11:24:38;95488.88;;;22.36;32.34
10992;BME280;5549;47.028;15.514;2024-03-23T11:27:16;95476.94;;;22.09;34.90
10992;BME280;5549;47.028;15.514;2024-03-23T11:29:45;95467.19;;;22.15;33.93
10992;BME280;5549;47.028;15.514;2024-03-23T11:32:15;95467.25;;;22.38;35.62
10992;BME280;5549;47.028;15.514;2024-03-23T11:34:45;95459.88;;;22.63;32.80
10992;BME280;5549;47.028;15.514;2024-03-23T11:37:13;95455.75;;;22.91;32.77
10992;BME280;5549;47.028;15.514;2024-03-23T11:39:41;95448.88;;;22.83;31.14
10992;BME280;5549;47.028;15.514;2024-03-23T11:42:15;95446.28;;;22.77;32.39
10992;BME280;5549;47.028;15.514;2024-03-23T11:44:41;95440.72;;;22.90;32.23
10992;BME280;5549;47.028;15.514;2024-03-23T11:47:10;95427.09;;;23.03;34.70
10992;BME280;5549;47.028;15.514;2024-03-23T11:49:37;95417.09;;;23.10;32.14
10992;BME280;5549;47.028;15.514;2024-03-23T11:52:08;95409.72;;;23.17;32.26
10992;BME280;5549;47.028;15.514;2024-03-23T11:54:36;95406.69;;;23.25;31.14
10992;BME280;5549;47.028;15.514;2024-03-23T11:57:07;95403.19;;;23.25;32.13
10992;BME280;5549;47.028;15.514;2024-03-23T11:59:35;95400.53;;;23.25;32.10
10992;BME280;5549;47.028;15.514;2024-03-23T12:02:07;95397.19;;;23.58;32.45
10992;BME280;5549;47.028;15.514;2024-03-23T12:04:37;95391.31;;;23.32;33.54
10992;BME280;5549;47.028;15.514;2024-03-23T12:07:19;95387.53;;;23.57;31.60
10992;BME280;5549;47.028;15.514;2024-03-23T12:09:49;95376.72;;;23.40;33.60
10992;BME280;5549;47.028;15.514;2024-03-23T12:12:31;95369.97;;;23.38;31.63
10992;BME280;5549;47.028;15.514;2024-03-23T12:15:05;95364.19;;;23.17;32.22
10992;BME280;5549;47.028;15.514;2024-03-23T12:17:34;95364.31;;;23.22;31.88
10992;BME280;5549;47.028;15.514;2024-03-23T12:20:05;95350.50;;;23.42;29.73
10992;BME280;5549;47.028;15.514;2024-03-23T12:22:35;95355.59;;;23.15;31.90
10992;BME280;5549;47.028;15.514;2024-03-23T12:25:04;95343.47;;;23.24;32.57
10992;BME280;5549;47.028;15.514;2024-03-23T12:27:32;95344.44;;;23.47;31.09
10992;BME280;5549;47.028;15.514;2024-03-23T12:29:59;95340.47;;;23.09;30.79
10992;BME280;5549;47.028;15.514;2024-03-23T12:32:31;95335.03;;;23.32;30.84
10992;BME280;5549;47.028;15.514;2024-03-23T12:34:57;95329.41;;;23.46;29.24
10992;BME280;5549;47.028;15.514;2024-03-23T12:37:25;95320.50;;;23.85;30.95
10992;BME280;5549;47.028;15.514;2024-03-23T12:39:53;95312.72;;;24.17;32.07
10992;BME280;5549;47.028;15.514;2024-03-23T12:42:23;95308.50;;;24.05;28.59
10992;BME280;5549;47.028;15.514;2024-03-23T12:44:52;95321.00;;;24.16;27.84
10992;BME280;5549;47.028;15.514;2024-03-23T12:47:23;95301.75;;;23.85;27.60
10992;BME280;5549;47.028;15.514;2024-03-23T12:49:51;95301.50;;;23.87;27.64
10992;BME280;5549;47.028;15.514;2024-03-23T12:52:18;95302.63;;;23.91;28.32
10992;BME280;5549;47.028;15.514;2024-03-23T12:54:48;95304.53;;;23.33;29.25
10992;BME280;5549;47.028;15.514;2024-03-23T12:57:20;95295.34;;;23.29;27.91
10992;BME280;5549;47.028;15.514;2024-03-23T12:59:46;95303.19;;;23.48;28.69
10992;BME280;5549;47.028;15.514;2024-03-23T13:02:18;95302.22;;;23.25;28.96
10992;BME280;5549;47.028;15.514;2024-03-23T13:04:46;95293.13;;;23.26;28.47
10992;BME280;5549;47.028;15.514;2024-03-23T13:07:20;95294.03;;;23.03;29.08
10992;BME280;5549;47.028;15.514;2024-03-23T13:09:53;95289.66;;;22.86;28.93
10992;BME280;5549;47.028;15.514;2024-03-23T13:12:24;95289.56;;;22.81;29.17
10992;BME280;5549;47.028;15.514;2024-03-23T13:14:53;95284.88;;;22.29;29.45
10992;BME280;5549;47.028;15.514;2024-03-23T13:17:20;95277.31;;;22.03;29.73
10992;BME280;5549;47.028;15.514;2024-03-23T13:19:49;95285.25;;;21.68;29.94
10992;BME280;5549;47.028;15.514;2024-03-23T13:22:17;95285.72;;;21.65;30.39
10992;BME280;5549;47.028;15.514;2024-03-23T13:24:43;95286.06;;;21.68;30.67
10992;BME280;5549;47.028;15.514;2024-03-23T13:27:11;95282.91;;;21.60;30.90
10992;BME280;5549;47.028;15.514;2024-03-23T13:29:41;95285.19;;;21.44;31.43
10992;BME280;5549;47.028;15.514;2024-03-23T13:32:11;95279.22;;;21.31;31.71
10992;BME280;5549;47.028;15.514;2024-03-23T13:34:40;95277.63;;;21.41;31.90
10992;BME280;5549;47.028;15.514;2024-03-23T13:37:10;95278.50;;;21.24;31.97
10992;BME280;5549;47.028;15.514;2024-03-23T13:39:36;95269.97;;;21.15;32.77
10992;BME280;5549;47.028;15.514;2024-03-23T13:42:04;95270.53;;;21.35;32.72
10992;BME280;5549;47.028;15.514;2024-03-23T13:44:31;95268.91;;;21.34;33.04
10992;BME280;5549;47.028;15.514;2024-03-23T13:47:03;95268.22;;;21.39;32.78
10992;BME280;5549;47.028;15.514;2024-03-23T13:49:32;95262.63;;;21.10;32.92
10992;BME280;5549;47.028;15.514;2024-03-23T13:52:00;95264.63;;;21.15;32.45
10992;BME280;5549;47.028;15.514;2024-03-23T13:54:27;95261.03;;;20.91;32.78
10992;BME280;5549;47.028;15.514;2024-03-23T13:56:57;95254.94;;;20.66;33.01
10992;BME280;5549;47.028;15.514;2024-03-23T13:59:26;95274.00;;;20.51;33.43
10992;BME280;5549;47.028;15.514;2024-03-23T14:01:54;95263.34;;;20.51;33.75